To NAV CANADA Home Page Login to a new session Search on AWWS site Disclaimer Vers la page française équivalente Tips FAQ What's new on the site To the Forecasts and Observations / NOTAM section To "File a Flight Plan" website Publications and other links Update of the User's profile FIC Telephone Numbers My Weather Data Folder Route Weather Data Regional Weather Data Local Weather Data To the Forecasts and Observations / NOTAM section
Request Generated 12/01/2020 at 09:02:37 UTC . Weather information available at that time is displayed.

METAR/TAF

OTTAWA/MACDONALD-CARTIER INTL/ON    

METAR CYOW 010900Z 35004KT 8SM OVC007 03/03 A2941 RMK SC8 SLP966=
METAR CYOW 010800Z 34007KT 7SM SCT004 OVC008 03/03 A2942 RMK SF3SC5 SLP967=
METAR CYOW 010700Z 34008KT 6SM BR OVC004 03/03 A2941 RMK SF8 SLP966=

TAF CYOW 010839Z 0109/0206 34008KT 6SM BR OVC010 TEMPO 0109/0118 2SM
-RA -DZ BR OVC008 PROB30 0109/0115 3/4SM -DZ BR VV004
FM011800 33005KT 1SM -DZ BR OVC004
BECMG 0118/0120 19012KT
FM012000 20010G20KT 6SM -SHRA BR OVC008
FM012200 19010G20KT P6SM BKN012
BECMG 0122/0124 19008KT
FM020300 17006KT 6SM -RA BR OVC008
RMK NXT FCST BY 011200Z=
Your time UTC time
Weather data provided by Environment Canada and NAV CANADA